Time;durP1;ratioP1;P1;durP2;ratioP2;P2;SDS_P1;SDS_P2;PMS_P1;PMS_P2;Temp;Humidity;BMP_temperature;BMP_pressure;BME280_temperature;BME280_humidity;BME280_pressure;Samples;Min_cycle;Max_cycle;Signal;HPM_P1;HPM_P2
2021/08/20 00:02:02;;;;;;;2.13;1.65;;;19.80;72.50;;;;;;4981729;28;20041;-64
2021/08/20 00:04:28;;;;;;;2.90;1.77;;;19.70;72.70;;;;;;4980870;28;20042;-64
2021/08/20 00:06:53;;;;;;;1.90;1.58;;;19.70;73.00;;;;;;4980904;28;20034;-64
2021/08/20 00:09:20;;;;;;;2.30;1.40;;;19.60;73.00;;;;;;4979779;28;20862;-65
2021/08/20 00:11:45;;;;;;;2.75;1.65;;;19.60;73.20;;;;;;4989342;28;20043;-64
2021/08/20 00:14:15;;;;;;;1.75;1.63;;;19.50;73.60;;;;;;4979790;28;20042;-64
2021/08/20 00:16:41;;;;;;;2.88;1.60;;;19.50;73.70;;;;;;4979679;28;20062;-64
2021/08/20 00:19:06;;;;;;;2.30;1.60;;;19.60;73.80;;;;;;4979930;28;20057;-64
2021/08/20 00:21:34;;;;;;;2.20;1.63;;;19.50;73.80;;;;;;4981279;28;20038;-64
2021/08/20 00:23:59;;;;;;;3.00;1.70;;;19.50;73.70;;;;;;4981949;28;20030;-64
2021/08/20 00:26:25;;;;;;;2.75;1.67;;;19.50;73.90;;;;;;4984483;28;20370;-64
2021/08/20 00:28:50;;;;;;;2.13;1.85;;;19.50;73.90;;;;;;4971873;28;20058;-64
2021/08/20 00:31:16;;;;;;;3.58;1.70;;;19.50;74.10;;;;;;4970852;28;20045;-64
2021/08/20 00:33:42;;;;;;;4.75;1.50;;;19.50;74.20;;;;;;4973449;28;20039;-64
2021/08/20 00:36:07;;;;;;;2.85;1.85;;;19.40;74.20;;;;;;4966344;28;20038;-64
2021/08/20 00:38:38;;;;;;;1.70;1.50;;;19.50;74.40;;;;;;4981138;28;20034;-64
2021/08/20 00:41:12;;;;;;;1.80;1.50;;;19.40;74.40;;;;;;4976687;28;20067;-64
2021/08/20 00:43:40;;;;;;;2.15;1.33;;;19.30;74.80;;;;;;4976837;28;20027;-64
2021/08/20 00:46:07;;;;;;;1.75;1.45;;;19.30;74.40;;;;;;4975904;28;20041;-64
2021/08/20 00:48:33;;;;;;;1.70;1.60;;;19.20;74.60;;;;;;4980146;28;20046;-64
2021/08/20 00:51:22;;;;;;;2.60;1.88;;;19.20;74.80;;;;;;4980709;28;20038;-64
2021/08/20 00:53:49;;;;;;;2.85;2.00;;;19.10;75.70;;;;;;4982460;28;20186;-64
2021/08/20 00:56:18;;;;;;;1.85;1.75;;;19.00;74.90;;;;;;5001928;28;20146;-64
2021/08/20 00:58:45;;;;;;;1.90;1.80;;;19.00;75.00;;;;;;4974554;28;20026;-64
2021/08/20 01:01:11;;;;;;;2.33;2.10;;;19.00;75.20;;;;;;4968964;28;20065;-64
2021/08/20 01:03:37;;;;;;;2.10;1.90;;;18.90;75.20;;;;;;4979905;28;20490;-64
2021/08/20 01:06:05;;;;;;;1.92;1.80;;;18.90;75.30;;;;;;4982462;28;20113;-63
2021/08/20 01:08:31;;;;;;;1.90;1.80;;;18.80;75.50;;;;;;4982692;28;20039;-64
2021/08/20 01:11:01;;;;;;;2.03;1.83;;;18.70;75.80;;;;;;4982488;28;20095;-64
2021/08/20 01:13:31;;;;;;;2.80;1.70;;;18.70;76.80;;;;;;4973923;28;20034;-64
2021/08/20 01:15:57;;;;;;;2.00;1.65;;;18.70;76.20;;;;;;4982363;28;20037;-64
2021/08/20 01:18:23;;;;;;;3.67;2.13;;;18.60;76.10;;;;;;4971103;28;20026;-64
2021/08/20 01:20:50;;;;;;;2.70;1.77;;;18.60;76.30;;;;;;4978055;28;20030;-64
2021/08/20 01:23:21;;;;;;;2.30;1.80;;;18.60;77.30;;;;;;4980597;28;20517;-64
2021/08/20 01:25:47;;;;;;;2.05;1.73;;;18.60;76.60;;;;;;4982180;28;20043;-64
2021/08/20 01:28:13;;;;;;;1.77;1.67;;;18.50;76.60;;;;;;4980805;28;20501;-64
2021/08/20 01:30:38;;;;;;;2.53;1.77;;;18.50;76.90;;;;;;4984688;28;20068;-64
2021/08/20 01:33:05;;;;;;;2.25;1.90;;;18.50;77.10;;;;;;4971081;28;20054;-64
2021/08/20 01:35:32;;;;;;;2.65;2.00;;;18.40;77.10;;;;;;4977221;28;20049;-64
2021/08/20 01:37:58;;;;;;;1.92;1.83;;;18.40;77.10;;;;;;4981706;28;20558;-64
2021/08/20 01:40:24;;;;;;;2.28;1.90;;;18.40;77.20;;;;;;4982029;28;20126;-64
2021/08/20 01:42:49;;;;;;;2.13;1.90;;;18.40;77.30;;;;;;4976630;28;20446;-64
2021/08/20 01:45:15;;;;;;;1.75;1.65;;;18.30;77.50;;;;;;4982116;28;20069;-64
2021/08/20 01:47:41;;;;;;;1.88;1.73;;;18.40;77.70;;;;;;4980549;28;20076;-64
2021/08/20 01:50:07;;;;;;;1.63;1.52;;;18.30;77.70;;;;;;4979833;28;20052;-64
2021/08/20 01:52:33;;;;;;;2.25;1.58;;;18.40;77.70;;;;;;4976255;28;20062;-64
2021/08/20 01:54:59;;;;;;;3.13;1.92;;;18.40;77.80;;;;;;4978779;28;20073;-64
2021/08/20 01:57:24;;;;;;;1.60;1.50;;;18.40;77.70;;;;;;5001491;28;20083;-64
2021/08/20 01:59:50;;;;;;;2.70;1.80;;;18.50;77.50;;;;;;4996161;28;20510;-64
2021/08/20 02:02:15;;;;;;;2.10;1.83;;;18.50;77.40;;;;;;4972606;28;20498;-64
2021/08/20 02:04:41;;;;;;;1.75;1.65;;;18.50;77.30;;;;;;4978012;28;20124;-64
2021/08/20 02:07:07;;;;;;;2.90;1.80;;;18.50;77.30;;;;;;4979310;28;20072;-64
2021/08/20 02:09:32;;;;;;;2.90;1.65;;;18.50;77.40;;;;;;4981623;28;20038;-64
2021/08/20 02:11:58;;;;;;;1.58;1.42;;;18.50;77.40;;;;;;4974808;28;20038;-64
2021/08/20 02:14:23;;;;;;;1.48;1.38;;;18.50;77.30;;;;;;4980950;28;20042;-64
2021/08/20 02:16:49;;;;;;;2.35;1.58;;;18.60;77.30;;;;;;4971631;28;20121;-64
2021/08/20 02:19:15;;;;;;;2.25;1.73;;;18.60;77.20;;;;;;4972105;28;20050;-64
2021/08/20 02:21:41;;;;;;;1.90;1.80;;;18.70;77.30;;;;;;4985021;28;20038;-64
2021/08/20 02:24:06;;;;;;;1.92;1.70;;;18.70;77.30;;;;;;4985012;28;20224;-64
2021/08/20 02:26:32;;;;;;;1.90;1.65;;;18.70;77.30;;;;;;4978548;28;20783;-64
2021/08/20 02:28:58;;;;;;;1.63;1.52;;;18.80;77.00;;;;;;4977451;28;20375;-63
2021/08/20 02:31:23;;;;;;;2.00;1.70;;;18.80;76.80;;;;;;4992859;28;20030;-64
2021/08/20 02:33:49;;;;;;;3.38;1.67;;;18.90;76.80;;;;;;4977431;28;20034;-64
2021/08/20 02:36:15;;;;;;;3.80;1.63;;;18.90;76.80;;;;;;4981403;28;20041;-64
2021/08/20 02:38:42;;;;;;;2.10;2.00;;;18.90;76.70;;;;;;4981824;28;20038;-64
2021/08/20 02:41:08;;;;;;;2.35;1.70;;;18.90;76.40;;;;;;4982496;28;20037;-64
2021/08/20 02:43:33;;;;;;;3.45;1.88;;;18.90;76.20;;;;;;4970411;28;20051;-64
2021/08/20 02:45:59;;;;;;;1.92;1.58;;;18.90;76.10;;;;;;4976021;28;20120;-64
2021/08/20 02:48:25;;;;;;;2.95;1.83;;;18.90;76.20;;;;;;4974893;28;20046;-64
2021/08/20 02:50:51;;;;;;;1.73;1.52;;;18.90;76.40;;;;;;4976974;28;20580;-65
2021/08/20 02:53:17;;;;;;;2.90;1.90;;;18.90;76.40;;;;;;4982440;28;20070;-64
2021/08/20 02:55:43;;;;;;;2.20;1.70;;;18.90;76.50;;;;;;4981994;28;20181;-64
2021/08/20 02:58:08;;;;;;;2.63;1.70;;;18.90;76.50;;;;;;4979862;28;20053;-64
2021/08/20 03:00:35;;;;;;;2.17;1.73;;;18.90;76.50;;;;;;4994940;28;20136;-64
2021/08/20 03:03:01;;;;;;;1.98;1.88;;;18.90;76.50;;;;;;4978870;28;20881;-64
2021/08/20 03:05:27;;;;;;;2.30;1.95;;;18.90;76.30;;;;;;4973274;28;20030;-64
2021/08/20 03:07:52;;;;;;;2.33;1.88;;;18.90;76.40;;;;;;4979240;28;20041;-64
2021/08/20 03:10:18;;;;;;;3.05;1.85;;;18.90;76.50;;;;;;4979737;28;20050;-64
2021/08/20 03:12:44;;;;;;;3.28;2.00;;;18.90;76.50;;;;;;4978055;28;20409;-64
2021/08/20 03:15:10;;;;;;;1.80;1.70;;;18.80;76.60;;;;;;4977825;28;20756;-63
2021/08/20 03:17:36;;;;;;;2.42;2.03;;;18.80;77.40;;;;;;4969899;28;20042;-64
2021/08/20 03:20:02;;;;;;;3.05;2.03;;;18.80;76.60;;;;;;4977991;28;20533;-64
2021/08/20 03:22:28;;;;;;;2.58;1.85;;;18.80;76.80;;;;;;4993951;28;20154;-64
2021/08/20 03:24:54;;;;;;;2.00;1.90;;;18.80;76.80;;;;;;4979866;28;20125;-64
2021/08/20 03:27:19;;;;;;;2.20;2.03;;;18.80;76.80;;;;;;4980758;28;20074;-64
2021/08/20 03:29:45;;;;;;;2.35;1.65;;;18.80;76.90;;;;;;4979197;28;20034;-64
2021/08/20 03:32:11;;;;;;;3.17;1.92;;;18.80;77.00;;;;;;4980982;28;20037;-64
2021/08/20 03:34:36;;;;;;;1.80;1.70;;;18.80;77.00;;;;;;4985215;28;20042;-64
2021/08/20 03:37:02;;;;;;;1.80;1.70;;;18.80;77.70;;;;;;4974093;28;20086;-64
2021/08/20 03:39:28;;;;;;;2.60;2.20;;;18.80;76.60;;;;;;4983446;28;20034;-64
2021/08/20 03:41:54;;;;;;;4.10;2.03;;;18.90;76.80;;;;;;4981854;28;20096;-64
2021/08/20 03:44:19;;;;;;;2.10;1.90;;;18.90;76.80;;;;;;4978145;28;20133;-64
2021/08/20 03:46:45;;;;;;;2.63;1.98;;;18.90;76.70;;;;;;4980779;28;20053;-64
2021/08/20 03:49:11;;;;;;;2.30;2.08;;;18.90;76.80;;;;;;4988414;28;20045;-64
2021/08/20 03:51:36;;;;;;;2.15;2.00;;;18.80;76.90;;;;;;4975616;28;20065;-64
2021/08/20 03:54:02;;;;;;;2.15;1.95;;;18.80;77.10;;;;;;4981178;28;20030;-64
2021/08/20 03:56:28;;;;;;;2.33;2.10;;;18.80;77.20;;;;;;4983693;28;20632;-63
2021/08/20 03:58:53;;;;;;;3.60;2.45;;;18.70;77.30;;;;;;4977752;28;20035;-64
2021/08/20 04:01:19;;;;;;;2.55;2.33;;;18.70;77.50;;;;;;4979733;28;20061;-64
2021/08/20 04:03:45;;;;;;;2.55;2.13;;;18.70;77.50;;;;;;4978923;28;20114;-64
2021/08/20 04:06:11;;;;;;;3.55;2.53;;;18.70;77.50;;;;;;4977137;28;20121;-64
2021/08/20 04:08:37;;;;;;;3.65;2.25;;;18.70;77.50;;;;;;4984472;28;20034;-64
2021/08/20 04:11:03;;;;;;;2.40;2.20;;;18.70;77.60;;;;;;4983373;28;20502;-64
2021/08/20 04:13:28;;;;;;;2.45;2.00;;;18.70;77.70;;;;;;4976337;28;20038;-64
2021/08/20 04:15:54;;;;;;;2.42;2.22;;;18.70;77.60;;;;;;4978472;28;20039;-64
2021/08/20 04:18:20;;;;;;;2.28;2.08;;;18.70;77.60;;;;;;4979117;28;20054;-64
2021/08/20 04:20:45;;;;;;;3.08;2.40;;;18.80;77.70;;;;;;4975146;28;20492;-64
2021/08/20 04:23:12;;;;;;;2.20;2.05;;;18.80;78.40;;;;;;4983872;28;20556;-64
2021/08/20 04:25:37;;;;;;;2.58;2.30;;;18.80;77.60;;;;;;5000039;28;20417;-64
2021/08/20 04:28:04;;;;;;;2.20;2.00;;;18.90;77.70;;;;;;4977662;28;20031;-65
2021/08/20 04:30:30;;;;;;;2.65;2.40;;;18.90;77.70;;;;;;4983110;28;20065;-64
2021/08/20 04:32:59;;;;;;;2.47;2.28;;;18.90;77.70;;;;;;4977045;28;20034;-64
2021/08/20 04:35:27;;;;;;;2.40;2.20;;;18.90;77.70;;;;;;4981497;28;20327;-64
2021/08/20 04:37:53;;;;;;;3.17;2.40;;;18.90;77.50;;;;;;4977881;28;20122;-64
2021/08/20 04:40:18;;;;;;;4.53;2.53;;;18.90;77.60;;;;;;4983204;28;20689;-64
2021/08/20 04:42:44;;;;;;;5.15;2.45;;;18.80;77.70;;;;;;4980495;28;20034;-64
2021/08/20 04:45:10;;;;;;;4.50;2.47;;;18.80;77.70;;;;;;4982535;28;20044;-64
2021/08/20 04:47:36;;;;;;;2.75;2.55;;;18.80;78.00;;;;;;4989057;28;20034;-64
2021/08/20 04:50:04;;;;;;;8.48;2.47;;;18.80;78.00;;;;;;4980545;28;20398;-64
2021/08/20 04:52:30;;;;;;;3.55;2.58;;;18.70;78.10;;;;;;4975885;28;20038;-64
2021/08/20 04:54:55;;;;;;;2.65;2.38;;;18.70;78.00;;;;;;4973920;28;20034;-64
2021/08/20 04:57:21;;;;;;;4.43;2.58;;;18.70;78.20;;;;;;4980294;28;20050;-64
2021/08/20 04:59:47;;;;;;;3.63;2.75;;;18.70;78.30;;;;;;4984323;28;20034;-64
2021/08/20 05:02:12;;;;;;;2.67;2.47;;;18.70;78.30;;;;;;4985684;28;20765;-64
2021/08/20 05:04:38;;;;;;;2.67;2.47;;;18.80;78.20;;;;;;4972521;28;20072;-64
2021/08/20 05:07:05;;;;;;;3.42;2.88;;;18.80;78.20;;;;;;4992148;28;20510;-64
2021/08/20 05:09:32;;;;;;;3.38;2.80;;;18.80;78.10;;;;;;4981305;28;20521;-64
2021/08/20 05:12:00;;;;;;;3.30;2.90;;;18.80;78.10;;;;;;4979664;28;20038;-64
2021/08/20 05:14:26;;;;;;;4.53;3.20;;;18.80;78.00;;;;;;4986002;28;20045;-64
2021/08/20 05:16:52;;;;;;;2.90;2.60;;;18.90;78.00;;;;;;4983097;28;20046;-64
2021/08/20 05:19:17;;;;;;;2.90;2.70;;;18.80;78.00;;;;;;4967964;28;20042;-64
2021/08/20 05:21:43;;;;;;;3.10;2.80;;;18.80;78.20;;;;;;4983837;28;20465;-64
2021/08/20 05:24:09;;;;;;;3.45;2.63;;;18.80;78.10;;;;;;4994135;28;20061;-64
2021/08/20 05:26:34;;;;;;;2.97;2.67;;;18.70;78.20;;;;;;4979720;28;20042;-64
2021/08/20 05:29:00;;;;;;;5.38;2.25;;;18.70;78.30;;;;;;4986853;28;20514;-64
2021/08/20 05:31:26;;;;;;;4.68;2.85;;;18.70;79.10;;;;;;4991707;28;20111;-64
2021/08/20 05:33:51;;;;;;;2.22;2.10;;;18.70;78.60;;;;;;4971616;28;20605;-64
2021/08/20 05:36:17;;;;;;;2.65;2.45;;;18.70;78.60;;;;;;4967915;28;20121;-64
2021/08/20 05:38:43;;;;;;;3.00;2.40;;;18.70;78.70;;;;;;4971022;28;20093;-64
2021/08/20 05:41:08;;;;;;;3.40;2.53;;;18.70;78.70;;;;;;4977244;28;20502;-64
2021/08/20 05:43:34;;;;;;;3.42;2.30;;;18.70;78.90;;;;;;4971789;28;20506;-64
2021/08/20 05:46:00;;;;;;;3.00;2.40;;;18.70;78.70;;;;;;4972705;28;20031;-64
2021/08/20 05:48:26;;;;;;;3.60;2.38;;;18.80;78.70;;;;;;4979706;28;20508;-63
2021/08/20 05:50:51;;;;;;;3.53;2.30;;;18.80;78.70;;;;;;4981858;28;20100;-64
2021/08/20 05:53:17;;;;;;;2.45;2.25;;;18.80;78.80;;;;;;4996082;28;20034;-64
2021/08/20 05:55:42;;;;;;;4.10;2.30;;;18.80;78.80;;;;;;4969781;28;20576;-64
2021/08/20 05:58:08;;;;;;;2.60;2.40;;;18.80;78.70;;;;;;4970530;28;21546;-63
2021/08/20 06:00:34;;;;;;;2.58;2.38;;;18.80;78.60;;;;;;4969433;28;20030;-64
2021/08/20 06:03:00;;;;;;;2.47;2.28;;;18.80;78.80;;;;;;4978894;28;20027;-64
2021/08/20 06:05:26;;;;;;;2.75;2.40;;;18.80;79.10;;;;;;4986550;28;20084;-64
2021/08/20 06:07:52;;;;;;;3.42;2.10;;;18.80;79.20;;;;;;4991273;28;22192;-64
2021/08/20 06:10:19;;;;;;;2.60;2.40;;;18.80;79.10;;;;;;4970620;28;20042;-64
2021/08/20 06:12:45;;;;;;;2.50;2.30;;;18.90;79.20;;;;;;4980670;28;20120;-64
2021/08/20 06:15:11;;;;;;;2.63;2.42;;;18.90;79.30;;;;;;4998052;28;21374;-64
2021/08/20 06:17:37;;;;;;;2.95;2.53;;;18.90;79.10;;;;;;4979870;28;20083;-64
2021/08/20 06:20:04;;;;;;;3.83;2.70;;;19.00;78.90;;;;;;4978048;28;20062;-63
2021/08/20 06:22:30;;;;;;;3.85;3.05;;;19.10;78.70;;;;;;4976445;28;20038;-64
2021/08/20 06:24:56;;;;;;;5.43;2.97;;;19.10;78.40;;;;;;4977453;28;20168;-63
2021/08/20 06:27:21;;;;;;;3.40;3.10;;;19.20;77.90;;;;;;4973983;28;20043;-64
2021/08/20 06:29:47;;;;;;;3.38;3.08;;;19.20;77.90;;;;;;4972288;28;20045;-64
2021/08/20 06:32:13;;;;;;;3.63;2.90;;;19.20;78.00;;;;;;4978400;28;20529;-64
2021/08/20 06:34:38;;;;;;;3.42;2.95;;;19.30;77.90;;;;;;4992577;28;20463;-64
2021/08/20 06:37:05;;;;;;;3.80;2.95;;;19.30;77.50;;;;;;4970898;28;20034;-63
2021/08/20 06:39:31;;;;;;;3.22;2.92;;;19.40;77.40;;;;;;4985505;28;20405;-64
2021/08/20 06:41:57;;;;;;;3.40;2.80;;;19.40;77.70;;;;;;4970364;28;20058;-64
2021/08/20 06:44:23;;;;;;;3.70;3.40;;;19.40;77.80;;;;;;4967439;28;20077;-63
2021/08/20 06:46:49;;;;;;;4.20;3.67;;;19.50;77.50;;;;;;4969808;28;20038;-63
2021/08/20 06:49:14;;;;;;;4.07;3.40;;;19.60;77.30;;;;;;4976339;28;20045;-64
2021/08/20 06:51:40;;;;;;;4.25;3.85;;;19.70;77.30;;;;;;4971056;28;20859;-64
2021/08/20 06:54:06;;;;;;;4.97;4.40;;;19.70;76.80;;;;;;4955116;28;20043;-64
2021/08/20 06:56:31;;;;;;;4.43;4.03;;;19.80;76.60;;;;;;4955278;28;20038;-64
2021/08/20 06:58:57;;;;;;;4.75;3.80;;;19.90;76.30;;;;;;4964527;28;20089;-64
2021/08/20 07:01:24;;;;;;;4.38;3.97;;;19.90;75.80;;;;;;4972686;28;20063;-64
2021/08/20 07:03:50;;;;;;;5.38;4.07;;;20.00;75.80;;;;;;4959649;28;20090;-64
2021/08/20 07:06:24;;;;;;;5.75;4.30;;;20.10;75.70;;;;;;4969321;28;20038;-64
2021/08/20 07:08:51;;;;;;;8.27;4.70;;;20.10;75.30;;;;;;4960352;28;20092;-64
2021/08/20 07:11:18;;;;;;;5.18;4.60;;;20.20;74.60;;;;;;4982088;28;20035;-64
2021/08/20 07:13:43;;;;;;;4.50;4.00;;;20.20;74.30;;;;;;4968669;28;20514;-65
2021/08/20 07:16:09;;;;;;;4.43;3.90;;;20.30;74.00;;;;;;4975604;28;20045;-65
2021/08/20 07:18:35;;;;;;;8.88;4.75;;;20.30;74.00;;;;;;4978064;28;20063;-64
2021/08/20 07:21:02;;;;;;;4.95;4.22;;;20.40;73.90;;;;;;4991286;28;20035;-64
2021/08/20 07:23:27;;;;;;;4.72;4.18;;;20.40;73.60;;;;;;4977933;28;20034;-64
2021/08/20 07:25:53;;;;;;;4.82;4.30;;;20.50;73.70;;;;;;4991710;28;21059;-64
2021/08/20 07:28:19;;;;;;;4.78;4.28;;;20.50;73.20;;;;;;4968955;28;20042;-64
2021/08/20 07:30:44;;;;;;;4.40;4.00;;;20.60;73.10;;;;;;4973754;28;20046;-64
2021/08/20 07:33:10;;;;;;;4.68;4.28;;;20.60;73.00;;;;;;4967563;28;20067;-64
2021/08/20 07:35:35;;;;;;;4.05;3.75;;;20.70;72.90;;;;;;4976381;28;20133;-64
2021/08/20 07:38:01;;;;;;;4.22;3.67;;;20.70;72.80;;;;;;4978614;28;20041;-65
2021/08/20 07:40:27;;;;;;;4.88;4.13;;;20.80;72.80;;;;;;4972571;28;20030;-63
2021/08/20 07:42:52;;;;;;;4.93;3.95;;;20.90;72.80;;;;;;4975195;28;20034;-64
2021/08/20 07:45:18;;;;;;;5.55;4.18;;;21.00;72.30;;;;;;4974185;28;20034;-64
2021/08/20 07:47:45;;;;;;;4.50;4.10;;;21.10;72.10;;;;;;4972974;28;20449;-64
2021/08/20 07:50:11;;;;;;;6.35;4.07;;;21.20;70.90;;;;;;4993640;28;20473;-64
2021/08/20 07:52:37;;;;;;;4.72;4.00;;;21.30;70.90;;;;;;4979450;28;20038;-64
2021/08/20 07:55:03;;;;;;;4.40;4.00;;;21.30;70.70;;;;;;4984434;28;20030;-64
2021/08/20 07:57:28;;;;;;;4.47;3.95;;;21.40;70.90;;;;;;4980449;28;20046;-64
2021/08/20 07:59:54;;;;;;;3.88;3.33;;;21.50;70.60;;;;;;4976013;28;20065;-64
2021/08/20 08:02:20;;;;;;;7.00;3.90;;;21.60;70.70;;;;;;4978952;28;20121;-64
2021/08/20 08:04:46;;;;;;;4.95;4.45;;;21.70;69.80;;;;;;4985267;28;20046;-64
2021/08/20 08:07:11;;;;;;;4.47;3.55;;;21.70;68.90;;;;;;4980679;28;20134;-64
2021/08/20 08:09:37;;;;;;;4.03;3.72;;;21.80;69.20;;;;;;4977296;28;20034;-64
2021/08/20 08:12:03;;;;;;;4.38;3.97;;;21.80;68.70;;;;;;4975912;28;20395;-64
2021/08/20 08:14:30;;;;;;;4.70;4.30;;;21.90;68.50;;;;;;4982244;28;20089;-65
2021/08/20 08:16:55;;;;;;;5.50;4.18;;;21.90;68.20;;;;;;4979628;28;20045;-64
2021/08/20 08:19:21;;;;;;;4.70;3.95;;;22.00;68.30;;;;;;4980448;28;20034;-64
2021/08/20 08:21:46;;;;;;;9.32;3.83;;;22.10;67.90;;;;;;4986783;28;20064;-63
2021/08/20 08:24:12;;;;;;;4.13;3.67;;;22.10;68.30;;;;;;4983251;28;20089;-64
2021/08/20 08:26:38;;;;;;;3.83;3.47;;;22.20;68.50;;;;;;4995093;28;20039;-64
2021/08/20 08:29:03;;;;;;;4.22;3.83;;;22.20;68.50;;;;;;4985253;28;20034;-64
2021/08/20 08:31:29;;;;;;;5.55;4.05;;;22.20;68.30;;;;;;4984247;28;20038;-64
2021/08/20 08:33:55;;;;;;;4.88;4.30;;;22.30;68.80;;;;;;4979772;28;21551;-64
2021/08/20 08:36:20;;;;;;;5.00;3.63;;;22.40;67.80;;;;;;4986381;28;20524;-64
2021/08/20 08:38:46;;;;;;;7.82;4.15;;;22.40;67.80;;;;;;4983771;28;20038;-64
2021/08/20 08:41:12;;;;;;;4.80;4.30;;;22.40;67.20;;;;;;4982882;28;20118;-64
2021/08/20 08:43:37;;;;;;;6.05;4.55;;;22.50;67.50;;;;;;4994890;28;20402;-64
2021/08/20 08:46:05;;;;;;;4.55;4.15;;;22.50;66.80;;;;;;4983179;28;20413;-65
2021/08/20 08:48:37;;;;;;;4.68;4.03;;;22.50;67.40;;;;;;4979570;28;20105;-65
2021/08/20 08:51:04;;;;;;;4.18;3.78;;;22.50;67.60;;;;;;4979700;28;20034;-65
2021/08/20 08:53:29;;;;;;;3.95;3.55;;;22.50;66.00;;;;;;4975400;28;20122;-64
2021/08/20 08:55:55;;;;;;;4.43;4.03;;;22.60;65.00;;;;;;4973463;28;20044;-65
2021/08/20 08:58:21;;;;;;;4.78;3.85;;;22.60;64.60;;;;;;4973505;28;20062;-64
2021/08/20 09:00:47;;;;;;;4.35;3.95;;;22.70;64.80;;;;;;4979793;28;20217;-64
2021/08/20 09:03:29;;;;;;;7.05;4.30;;;22.70;65.20;;;;;;4981030;28;20080;-64
2021/08/20 09:05:57;;;;;;;4.40;3.88;;;22.70;63.80;;;;;;4998664;28;20564;-65
2021/08/20 09:08:24;;;;;;;5.32;4.18;;;22.70;64.80;;;;;;4979935;28;20049;-64
2021/08/20 09:10:57;;;;;;;4.70;3.95;;;22.80;64.60;;;;;;4977850;28;20417;-64
2021/08/20 09:13:23;;;;;;;4.43;4.00;;;22.80;65.00;;;;;;4979173;28;20137;-64
2021/08/20 09:16:33;;;;;;;7.10;4.45;;;22.90;65.00;;;;;;4972890;28;20079;-64
2021/08/20 09:19:14;;;;;;;4.95;4.10;;;22.90;63.70;;;;;;4974447;28;20026;-64
2021/08/20 09:21:48;;;;;;;4.93;4.28;;;23.00;64.10;;;;;;4986278;28;20058;-64
2021/08/20 09:24:32;;;;;;;5.13;3.97;;;23.00;64.20;;;;;;4984213;28;20064;-64
2021/08/20 09:27:13;;;;;;;10.40;4.57;;;23.10;64.00;;;;;;4983517;28;20498;-64
2021/08/20 09:29:52;;;;;;;4.63;4.20;;;23.10;63.80;;;;;;4983229;28;20030;-64
2021/08/20 09:32:18;;;;;;;5.90;4.25;;;23.20;64.30;;;;;;4983749;28;20034;-64
2021/08/20 09:34:49;;;;;;;4.75;4.28;;;23.30;64.00;;;;;;4982292;28;20054;-64
2021/08/20 09:37:15;;;;;;;4.80;4.30;;;23.40;62.20;;;;;;4980578;28;20544;-64
2021/08/20 09:39:46;;;;;;;4.97;3.97;;;23.40;62.40;;;;;;4987031;28;20445;-64
2021/08/20 09:42:13;;;;;;;4.80;3.60;;;23.40;62.60;;;;;;4983807;28;20035;-64
2021/08/20 09:44:39;;;;;;;4.43;3.30;;;23.50;63.10;;;;;;4984523;28;20446;-64
2021/08/20 09:47:06;;;;;;;3.97;3.58;;;23.60;63.10;;;;;;4987148;28;20042;-64
2021/08/20 09:49:55;;;;;;;4.03;3.40;;;23.70;62.70;;;;;;4984311;28;20525;-65
2021/08/20 09:52:30;;;;;;;4.63;3.70;;;23.80;61.90;;;;;;4984194;28;20438;-64
2021/08/20 09:54:57;;;;;;;4.00;3.60;;;23.90;62.00;;;;;;4985642;28;20487;-64
2021/08/20 09:57:29;;;;;;;4.20;3.80;;;24.00;60.70;;;;;;4978273;28;20034;-64
2021/08/20 09:59:56;;;;;;;3.78;3.15;;;24.10;61.30;;;;;;4979960;28;20077;-64
2021/08/20 10:02:27;;;;;;;3.83;3.35;;;24.10;61.20;;;;;;4980749;28;20050;-64
2021/08/20 10:04:57;;;;;;;3.47;3.17;;;24.10;59.80;;;;;;4979931;28;20059;-64
2021/08/20 10:07:27;;;;;;;2.90;2.55;;;24.20;59.60;;;;;;4982793;28;20077;-65
2021/08/20 10:09:59;;;;;;;3.80;2.70;;;24.30;59.20;;;;;;4980878;28;20137;-64
2021/08/20 10:12:25;;;;;;;2.65;2.40;;;24.40;58.30;;;;;;4977767;28;20027;-64
2021/08/20 10:14:53;;;;;;;3.95;2.92;;;24.40;59.40;;;;;;4983369;28;20035;-64
2021/08/20 10:17:19;;;;;;;2.70;2.42;;;24.50;58.40;;;;;;4985409;28;20258;-64
2021/08/20 10:19:46;;;;;;;3.67;2.95;;;24.60;58.60;;;;;;4985500;28;20100;-65
2021/08/20 10:22:11;;;;;;;4.40;3.30;;;24.70;58.30;;;;;;4986110;28;20038;-65
2021/08/20 10:24:38;;;;;;;3.00;2.72;;;24.80;58.10;;;;;;4982695;28;20557;-64
2021/08/20 10:27:06;;;;;;;3.08;2.78;;;24.90;57.50;;;;;;4986018;28;20045;-64
2021/08/20 10:29:37;;;;;;;4.07;3.08;;;24.90;57.70;;;;;;4984182;28;20049;-64
2021/08/20 10:32:06;;;;;;;4.03;2.70;;;25.00;56.60;;;;;;4975542;28;20039;-64
2021/08/20 10:34:39;;;;;;;3.45;2.40;;;25.00;56.70;;;;;;4979229;28;20030;-64
2021/08/20 10:37:13;;;;;;;2.38;2.17;;;25.00;57.10;;;;;;4998232;28;20038;-64
2021/08/20 10:39:44;;;;;;;3.03;2.72;;;25.00;57.30;;;;;;4978664;28;20054;-64
2021/08/20 10:42:18;;;;;;;2.70;2.35;;;25.10;56.90;;;;;;4984312;28;20030;-64
2021/08/20 10:44:51;;;;;;;3.47;2.70;;;25.20;57.40;;;;;;4993439;28;20050;-64
2021/08/20 10:47:30;;;;;;;3.88;3.15;;;25.20;56.40;;;;;;4985035;28;20042;-65
2021/08/20 10:50:20;;;;;;;3.30;2.97;;;25.30;55.20;;;;;;4984044;28;20041;-64
2021/08/20 10:52:49;;;;;;;2.42;2.22;;;25.20;55.60;;;;;;4983352;28;20089;-64
2021/08/20 10:55:24;;;;;;;3.35;2.42;;;25.20;56.60;;;;;;4983172;28;20068;-65
2021/08/20 10:57:58;;;;;;;2.95;2.50;;;25.20;56.30;;;;;;4983427;28;20042;-64
2021/08/20 11:00:25;;;;;;;;;;;25.10;56.30;;;;;;4983840;28;20039;-64
2021/08/20 11:02:56;;;;;;;2.60;2.40;;;25.10;56.00;;;;;;4984739;28;20389;-65
2021/08/20 11:05:43;;;;;;;2.45;2.15;;;25.00;56.30;;;;;;4985645;28;20066;-65
2021/08/20 11:08:26;;;;;;;4.00;2.63;;;25.00;56.20;;;;;;4984640;28;20441;-64
2021/08/20 11:10:53;;;;;;;4.40;2.30;;;25.00;55.60;;;;;;4979583;28;20034;-65
2021/08/20 11:13:18;;;;;;;2.50;2.22;;;25.00;56.30;;;;;;4983967;28;20125;-63
2021/08/20 11:15:45;;;;;;;3.40;2.10;;;25.00;56.40;;;;;;4984281;28;20490;-65
2021/08/20 11:18:11;;;;;;;3.72;2.67;;;25.00;56.40;;;;;;4985371;28;20035;-64
2021/08/20 11:20:40;;;;;;;2.75;2.50;;;24.90;56.10;;;;;;4983365;28;20517;-64
2021/08/20 11:23:09;;;;;;;2.22;2.03;;;25.00;55.80;;;;;;4982186;28;20034;-64
2021/08/20 11:25:42;;;;;;;2.35;2.15;;;25.00;56.20;;;;;;4974700;28;20513;-64
2021/08/20 11:28:29;;;;;;;2.72;2.50;;;25.00;56.00;;;;;;4973245;28;20529;-64
2021/08/20 11:31:05;;;;;;;2.42;2.22;;;25.00;55.80;;;;;;4954684;28;20041;-64
2021/08/20 11:33:52;;;;;;;3.75;2.33;;;25.10;55.30;;;;;;4967036;28;20065;-64
2021/08/20 11:36:21;;;;;;;3.28;2.47;;;25.20;55.10;;;;;;4981393;28;20041;-64
2021/08/20 11:38:53;;;;;;;2.42;2.22;;;25.30;54.80;;;;;;4969761;28;20047;-64
2021/08/20 11:41:27;;;;;;;2.58;2.38;;;25.30;54.80;;;;;;4955355;28;20514;-64
2021/08/20 11:43:57;;;;;;;2.15;2.00;;;25.30;54.00;;;;;;4969149;28;20039;-64
2021/08/20 11:46:26;;;;;;;2.50;2.30;;;25.30;54.90;;;;;;4967413;28;20394;-64
2021/08/20 11:48:55;;;;;;;2.03;1.90;;;25.30;54.00;;;;;;4973398;28;20070;-64
2021/08/20 11:51:34;;;;;;;2.50;2.30;;;25.30;54.00;;;;;;4966228;28;20522;-64
2021/08/20 11:54:08;;;;;;;3.15;2.53;;;25.20;53.60;;;;;;4962780;28;20368;-64
2021/08/20 11:56:35;;;;;;;1.88;1.75;;;25.20;52.90;;;;;;4962272;28;20399;-64
2021/08/20 11:59:11;;;;;;;2.83;2.10;;;25.10;54.10;;;;;;4963738;28;20039;-64
2021/08/20 12:01:40;;;;;;;2.20;2.00;;;25.10;53.50;;;;;;4970171;28;20027;-64
2021/08/20 12:04:07;;;;;;;1.80;1.70;;;25.10;54.80;;;;;;4975805;28;20038;-64
2021/08/20 12:06:34;;;;;;;2.10;1.95;;;25.10;55.00;;;;;;4960695;28;20074;-64
2021/08/20 12:09:12;;;;;;;2.13;1.98;;;25.20;54.50;;;;;;4974695;28;20121;-64
2021/08/20 12:11:40;;;;;;;2.17;1.88;;;25.40;54.00;;;;;;4973347;28;20030;-64
2021/08/20 12:14:05;;;;;;;4.57;2.00;;;25.50;54.40;;;;;;4982013;28;20030;-64
2021/08/20 12:16:39;;;;;;;3.90;2.10;;;25.50;53.50;;;;;;4996491;28;20053;-64
2021/08/20 12:19:24;;;;;;;2.60;2.07;;;25.60;53.60;;;;;;4998558;28;20038;-64
2021/08/20 12:22:16;;;;;;;2.58;2.00;;;25.60;51.70;;;;;;4998687;28;20030;-64
2021/08/20 12:24:44;;;;;;;2.75;1.80;;;25.70;50.80;;;;;;4978688;28;20042;-65
2021/08/20 12:27:21;;;;;;;2.40;2.20;;;25.70;52.80;;;;;;4981703;28;20034;-64
2021/08/20 12:29:59;;;;;;;1.85;1.75;;;25.60;50.50;;;;;;4979020;28;20039;-65
2021/08/20 12:32:27;;;;;;;5.10;2.90;;;25.60;51.30;;;;;;4985086;28;20074;-64
2021/08/20 12:35:00;;;;;;;2.50;2.30;;;25.70;52.10;;;;;;4980924;28;20039;-64
2021/08/20 12:37:27;;;;;;;3.15;1.98;;;25.60;51.30;;;;;;4987397;28;20034;-64
2021/08/20 12:40:05;;;;;;;2.10;1.90;;;25.60;52.10;;;;;;4985863;28;20059;-64
2021/08/20 12:42:31;;;;;;;2.30;2.10;;;25.70;51.70;;;;;;5003562;28;20509;-65
2021/08/20 12:45:07;;;;;;;1.80;1.70;;;25.70;52.30;;;;;;4975854;28;20043;-65
2021/08/20 12:47:33;;;;;;;3.35;1.80;;;25.70;52.20;;;;;;4986310;28;20034;-64
2021/08/20 12:49:59;;;;;;;2.13;1.90;;;25.80;52.60;;;;;;4984727;28;20041;-64
2021/08/20 12:52:26;;;;;;;1.73;1.63;;;25.80;52.30;;;;;;4995102;28;20042;-65